createdAt,value
2022-11-18T00:00:56.689Z,5.88
2022-11-18T00:03:23.975Z,4.93
2022-11-18T00:05:57.946Z,6.40
2022-11-18T00:08:26.080Z,5.50
2022-11-18T00:10:54.247Z,5.35
2022-11-18T00:13:39.586Z,5.13
2022-11-18T00:16:12.069Z,5.18
2022-11-18T00:18:39.393Z,4.55
2022-11-18T00:21:09.366Z,4.53
2022-11-18T00:23:36.770Z,4.70
2022-11-18T00:26:13.998Z,5.97
2022-11-18T00:28:41.911Z,5.07
2022-11-18T00:31:11.749Z,6.20
2022-11-18T00:33:39.557Z,4.43
2022-11-18T00:36:09.413Z,4.25
2022-11-18T00:38:36.583Z,4.32
2022-11-18T00:41:08.955Z,5.38
2022-11-18T00:43:36.672Z,5.43
2022-11-18T00:46:05.464Z,4.07
2022-11-18T00:48:32.615Z,3.88
2022-11-18T00:51:10.834Z,5.45
2022-11-18T00:53:37.993Z,5.05
2022-11-18T00:56:05.318Z,6.90
2022-11-18T00:58:32.192Z,4.97
2022-11-18T01:00:59.514Z,8.63
2022-11-18T01:03:28.696Z,4.00
2022-11-18T01:05:55.648Z,4.05
2022-11-18T01:08:23.066Z,4.60
2022-11-18T01:10:50.929Z,4.82
2022-11-18T01:13:19.807Z,4.20
2022-11-18T01:15:52.677Z,4.05
2022-11-18T01:18:25.497Z,3.60
2022-11-18T01:20:52.849Z,4.35
2022-11-18T01:23:20.942Z,3.58
2022-11-18T01:25:49.847Z,3.60
2022-11-18T01:28:23.269Z,6.28
2022-11-18T01:30:51.334Z,4.30
2022-11-18T01:33:18.535Z,4.07
2022-11-18T01:35:45.574Z,5.03
2022-11-18T01:38:14.232Z,3.80
2022-11-18T01:40:41.959Z,7.07
2022-11-18T01:43:15.912Z,5.10
2022-11-18T01:45:45.405Z,4.15
2022-11-18T01:48:26.970Z,4.20
2022-11-18T01:51:06.328Z,3.35
2022-11-18T01:53:38.610Z,2.45
2022-11-18T01:56:13.369Z,2.88
2022-11-18T01:59:09.281Z,2.17
2022-11-18T02:01:36.461Z,2.92
2022-11-18T02:04:04.123Z,3.92
2022-11-18T02:06:31.122Z,2.42
2022-11-18T02:08:58.184Z,3.35
2022-11-18T02:11:43.487Z,2.15
2022-11-18T02:14:12.283Z,3.22
2022-11-18T02:16:42.091Z,2.17
2022-11-18T02:19:37.712Z,3.10
2022-11-18T02:22:19.650Z,2.53
2022-11-18T02:25:07.798Z,2.45
2022-11-18T02:28:12.057Z,2.83
2022-11-18T02:31:11.138Z,2.92
2022-11-18T02:33:49.103Z,2.33
2022-11-18T02:36:29.691Z,3.70
2022-11-18T02:39:03.470Z,20.02
2022-11-18T02:41:33.986Z,6.80
2022-11-18T02:44:24.844Z,2.72
2022-11-18T02:46:57.086Z,4.03
2022-11-18T02:49:32.361Z,2.30
2022-11-18T02:52:00.819Z,2.85
2022-11-18T02:54:29.392Z,4.45
2022-11-18T02:56:58.081Z,2.47
2022-11-18T02:59:28.443Z,2.28
2022-11-18T03:01:55.369Z,1.92
2022-11-18T03:04:24.407Z,2.08
2022-11-18T03:07:02.884Z,2.35
2022-11-18T03:09:39.336Z,1.23
2022-11-18T03:12:24.673Z,1.95
2022-11-18T03:15:16.581Z,1.95
2022-11-18T03:18:07.488Z,2.25
2022-11-18T03:20:41.979Z,1.80
2022-11-18T03:23:22.167Z,2.13
2022-11-18T03:25:54.970Z,2.47
2022-11-18T03:28:39.477Z,1.75
2022-11-18T03:31:38.783Z,2.08
2022-11-18T03:34:12.709Z,2.38
2022-11-18T03:36:48.849Z,1.90
2022-11-18T03:39:21.271Z,2.65
2022-11-18T03:42:02.713Z,2.90
2022-11-18T03:44:32.723Z,2.17
2022-11-18T03:47:05.074Z,2.60
2022-11-18T03:49:46.587Z,2.20
2022-11-18T03:52:19.011Z,2.70
2022-11-18T03:54:50.364Z,2.42
2022-11-18T03:57:27.094Z,2.97
2022-11-18T04:02:24.970Z,2.63
2022-11-18T04:04:54.246Z,2.72
2022-11-18T04:07:36.078Z,2.97
2022-11-18T04:10:23.293Z,3.72
2022-11-18T04:15:21.002Z,3.30
2022-11-18T04:17:47.966Z,2.47
2022-11-18T04:20:21.293Z,2.05
2022-11-18T04:22:48.614Z,3.63
2022-11-18T04:25:16.020Z,4.03
2022-11-18T04:27:42.984Z,5.32
2022-11-18T04:30:10.618Z,3.75
2022-11-18T04:32:37.614Z,5.72
2022-11-18T04:35:04.663Z,4.13
2022-11-18T04:37:31.600Z,3.78
2022-11-18T04:39:58.625Z,8.73
2022-11-18T04:42:25.699Z,7.78
2022-11-18T04:44:52.590Z,7.53
2022-11-18T04:47:19.546Z,6.38
2022-11-18T04:49:46.560Z,9.38
2022-11-18T04:52:14.024Z,4.18
2022-11-18T04:54:40.960Z,4.60
2022-11-18T04:57:08.113Z,5.20
2022-11-18T04:59:34.997Z,3.17
2022-11-18T05:02:02.203Z,2.50
2022-11-18T05:04:32.077Z,4.03
2022-11-18T05:07:00.730Z,2.92
2022-11-18T05:09:31.785Z,3.00
2022-11-18T05:12:18.274Z,4.93
2022-11-18T05:14:49.545Z,2.80
2022-11-18T05:17:16.925Z,3.20
2022-11-18T05:19:43.792Z,3.55
2022-11-18T05:22:10.659Z,7.50
2022-11-18T05:24:37.564Z,6.88
2022-11-18T05:27:04.593Z,11.02
2022-11-18T05:29:31.740Z,9.25
2022-11-18T05:31:58.603Z,5.80
2022-11-18T05:34:25.634Z,6.07
2022-11-18T05:36:52.554Z,6.07
2022-11-18T05:39:19.822Z,6.22
2022-11-18T05:42:05.555Z,3.50
2022-11-18T05:44:32.497Z,2.25
2022-11-18T05:47:00.372Z,1.88
2022-11-18T05:49:27.496Z,2.38
2022-11-18T05:51:54.318Z,1.98
2022-11-18T05:54:22.115Z,5.88
2022-11-18T05:56:49.354Z,2.03
2022-11-18T05:59:16.942Z,2.90
2022-11-18T06:01:58.419Z,2.67
2022-11-18T06:04:45.540Z,2.70
2022-11-18T06:09:50.979Z,3.17
2022-11-18T06:12:21.740Z,2.35
2022-11-18T06:15:02.657Z,3.15
2022-11-18T06:17:40.407Z,4.03
2022-11-18T06:20:08.097Z,2.88
2022-11-18T06:22:35.789Z,2.40
2022-11-18T06:25:03.357Z,3.65
2022-11-18T06:27:31.158Z,2.92
2022-11-18T06:29:58.107Z,1.88
2022-11-18T06:32:24.990Z,2.95
2022-11-18T06:34:51.933Z,3.25
2022-11-18T06:37:23.122Z,2.47
2022-11-18T06:39:50.060Z,4.35
2022-11-18T06:42:36.904Z,5.85
2022-11-18T06:45:05.131Z,3.00
2022-11-18T06:47:32.179Z,4.15
2022-11-18T06:49:59.165Z,2.70
2022-11-18T06:52:26.114Z,2.53
2022-11-18T06:54:52.996Z,2.47
2022-11-18T06:57:19.934Z,2.60
2022-11-18T06:59:46.932Z,3.10
2022-11-18T07:02:13.895Z,4.00
2022-11-18T07:04:41.492Z,3.10
2022-11-18T07:07:08.611Z,5.88
2022-11-18T07:09:37.029Z,2.83
2022-11-18T07:12:04.674Z,3.05
2022-11-18T07:14:31.929Z,2.67
2022-11-18T07:16:58.857Z,2.65
2022-11-18T07:19:25.747Z,3.95
2022-11-18T07:21:52.983Z,6.55
2022-11-18T07:24:19.841Z,10.88
2022-11-18T07:26:46.965Z,6.22
2022-11-18T07:29:13.836Z,5.03
2022-11-18T07:31:41.039Z,8.57
2022-11-18T07:34:08.198Z,8.48
2022-11-18T07:36:36.232Z,5.60
2022-11-18T07:39:06.276Z,10.77
2022-11-18T07:41:34.390Z,7.68
2022-11-18T07:44:02.940Z,7.00
2022-11-18T07:46:35.732Z,11.55
2022-11-18T07:49:05.822Z,9.85
2022-11-18T07:51:35.190Z,10.25
2022-11-18T07:54:05.831Z,10.93
2022-11-18T07:56:32.774Z,8.02
2022-11-18T07:58:59.633Z,12.07
2022-11-18T08:01:31.263Z,17.15
2022-11-18T08:04:04.757Z,13.73
2022-11-18T08:06:34.222Z,10.48
2022-11-18T08:09:01.622Z,15.57
2022-11-18T08:11:28.702Z,8.25
2022-11-18T08:13:55.653Z,10.52
2022-11-18T08:16:24.706Z,13.40
2022-11-18T08:18:52.653Z,10.30
2022-11-18T08:21:21.491Z,17.25
2022-11-18T08:23:53.351Z,10.88
2022-11-18T08:26:20.812Z,18.63
2022-11-18T08:28:48.612Z,11.27
2022-11-18T08:31:21.126Z,14.25
2022-11-18T08:33:48.323Z,13.50
2022-11-18T08:36:21.331Z,14.02
2022-11-18T08:38:48.343Z,13.15
2022-11-18T08:41:19.866Z,10.68
2022-11-18T08:43:46.794Z,9.20
2022-11-18T08:46:13.812Z,7.65
2022-11-18T08:48:40.743Z,11.75
2022-11-18T08:51:11.655Z,5.45
2022-11-18T08:53:38.925Z,12.52
2022-11-18T08:56:06.435Z,7.75
2022-11-18T08:58:33.506Z,7.50
2022-11-18T09:01:06.637Z,8.60
2022-11-18T09:03:33.823Z,8.70
2022-11-18T09:06:10.701Z,14.70
2022-11-18T09:08:38.493Z,12.55
2022-11-18T09:11:13.010Z,14.00
2022-11-18T09:16:29.915Z,6.32
2022-11-18T09:19:02.092Z,12.80
2022-11-18T09:21:41.125Z,17.92
2022-11-18T09:24:08.567Z,9.10
2022-11-18T09:26:35.491Z,10.30
2022-11-18T09:29:02.608Z,11.05
2022-11-18T09:31:29.606Z,9.10
2022-11-18T09:33:58.805Z,9.07
2022-11-18T09:36:26.576Z,11.07
2022-11-18T09:38:53.769Z,7.57
2022-11-18T09:41:46.659Z,8.77
2022-11-18T09:44:22.265Z,7.85
2022-11-18T10:17:56.747Z,6.53
2022-11-18T10:20:47.189Z,10.38
2022-11-18T10:23:24.314Z,6.93
2022-11-18T10:25:53.246Z,9.10
2022-11-18T10:28:31.446Z,8.30
2022-11-18T10:31:07.656Z,11.93
2022-11-18T10:33:35.069Z,6.90
2022-11-18T10:36:17.175Z,8.50
2022-11-18T10:38:49.765Z,10.43
2022-11-18T10:41:20.775Z,9.15
2022-11-18T10:43:51.633Z,11.27
2022-11-18T10:46:28.939Z,7.70
2022-11-18T10:49:10.899Z,10.02
2022-11-18T10:51:46.565Z,11.77
2022-11-18T10:54:13.439Z,12.95
2022-11-18T10:56:48.845Z,10.00
2022-11-18T10:59:36.368Z,7.88
2022-11-18T11:02:15.834Z,19.95
2022-11-18T11:04:44.015Z,11.05
2022-11-18T11:07:35.188Z,12.20
2022-11-18T11:10:04.969Z,8.07
2022-11-18T11:12:37.696Z,12.05
2022-11-18T11:15:21.898Z,12.05
2022-11-18T11:18:16.799Z,15.35
2022-11-18T11:20:44.743Z,10.18
2022-11-18T11:23:16.692Z,8.75
2022-11-18T11:31:58.957Z,11.10
2022-11-18T11:34:31.772Z,9.27
2022-11-18T11:37:14.603Z,7.20
2022-11-18T11:40:12.302Z,7.78
2022-11-18T11:42:42.091Z,10.50
2022-11-18T11:45:36.421Z,11.18
2022-11-18T11:48:06.345Z,9.80
2022-11-18T11:51:01.580Z,7.53
2022-11-18T11:53:44.697Z,12.25
2022-11-18T11:56:32.484Z,11.07
2022-11-18T11:59:23.828Z,10.98
2022-11-18T12:01:50.667Z,13.55
2022-11-18T12:04:36.237Z,13.07
2022-11-18T12:07:05.425Z,12.10
2022-11-18T12:09:39.656Z,13.05
2022-11-18T12:12:36.933Z,13.52
2022-11-18T12:15:41.230Z,9.43
2022-11-18T12:18:30.546Z,9.50
2022-11-18T12:20:57.564Z,13.48
2022-11-18T12:23:29.417Z,14.70
2022-11-18T12:26:03.378Z,11.88
2022-11-18T12:28:41.520Z,15.30
2022-11-18T12:31:23.572Z,13.95
2022-11-18T12:34:01.299Z,18.88
2022-11-18T12:36:36.985Z,17.08
2022-11-18T12:39:25.817Z,14.67
2022-11-18T12:42:15.729Z,17.58
2022-11-18T12:44:44.526Z,12.65
2022-11-18T12:47:13.373Z,16.73
2022-11-18T12:49:46.449Z,13.40
2022-11-18T12:52:31.778Z,11.80
2022-11-18T12:55:31.816Z,16.80
2022-11-18T12:57:58.719Z,13.90
2022-11-18T13:00:25.711Z,13.20
2022-11-18T13:02:58.192Z,11.68
2022-11-18T13:05:32.384Z,9.65
2022-11-18T13:08:14.529Z,16.45
2022-11-18T13:10:44.110Z,11.95
2022-11-18T13:13:27.644Z,14.35
2022-11-18T13:16:16.146Z,18.38
2022-11-18T13:18:51.272Z,15.30
2022-11-18T13:21:46.118Z,19.15
2022-11-18T13:24:14.739Z,13.30
2022-11-18T13:26:44.823Z,14.18
2022-11-18T13:30:01.198Z,11.20
2022-11-18T13:32:29.476Z,15.13
2022-11-18T13:34:59.586Z,11.32
2022-11-18T13:37:29.457Z,9.70
2022-11-18T13:39:56.770Z,18.38
2022-11-18T13:42:28.681Z,17.50
2022-11-18T13:45:02.898Z,14.63
2022-11-18T13:47:29.862Z,13.95
2022-11-18T13:49:56.655Z,18.00
2022-11-18T13:52:44.407Z,18.75
2022-11-18T13:55:52.064Z,21.38
2022-11-18T13:58:18.908Z,18.15
2022-11-18T14:00:57.790Z,13.63
2022-11-18T14:03:46.398Z,19.63
2022-11-18T14:06:24.801Z,18.05
2022-11-18T14:08:53.127Z,19.88
2022-11-18T14:11:38.161Z,19.48
2022-11-18T14:14:05.315Z,19.80
2022-11-18T14:16:40.450Z,18.17
2022-11-18T14:19:26.563Z,25.02
2022-11-18T14:22:23.318Z,19.65
2022-11-18T14:25:15.645Z,20.20
2022-11-18T14:27:49.393Z,22.15
2022-11-18T14:30:41.701Z,17.05
2022-11-18T14:33:08.539Z,18.75
2022-11-18T14:35:35.556Z,23.23
2022-11-18T14:41:00.117Z,19.17
2022-11-18T14:43:27.604Z,20.20
2022-11-18T14:45:58.221Z,24.98
2022-11-18T14:48:32.126Z,17.65
2022-11-18T14:51:00.362Z,19.80
2022-11-18T14:53:27.597Z,20.65
2022-11-18T14:55:58.726Z,23.05
2022-11-18T14:58:25.823Z,28.73
2022-11-18T15:00:53.274Z,24.67
2022-11-18T15:03:20.319Z,21.90
2022-11-18T15:05:47.298Z,26.38
2022-11-18T15:08:14.285Z,24.45
2022-11-18T15:10:41.211Z,23.95
2022-11-18T15:13:08.150Z,19.08
2022-11-18T15:15:35.269Z,29.25
2022-11-18T15:18:02.221Z,22.33
2022-11-18T15:20:29.166Z,22.17
2022-11-18T15:22:56.268Z,23.17
2022-11-18T15:25:23.174Z,21.25
2022-11-18T15:27:50.139Z,22.02
2022-11-18T15:30:17.250Z,27.42
2022-11-18T15:32:44.250Z,28.92
2022-11-18T15:35:13.395Z,25.13
2022-11-18T15:37:41.295Z,36.03
2022-11-18T15:40:08.982Z,29.65
2022-11-18T15:42:42.476Z,30.55
2022-11-18T15:45:15.965Z,28.77
2022-11-18T15:47:42.796Z,24.05
2022-11-18T15:50:10.714Z,22.83
2022-11-18T15:52:37.727Z,26.40
2022-11-18T15:55:08.049Z,29.38
2022-11-18T15:57:35.295Z,18.63
2022-11-18T16:00:02.463Z,25.60
2022-11-18T16:02:39.144Z,23.25
2022-11-18T16:05:06.591Z,25.77
2022-11-18T16:07:33.514Z,23.98
2022-11-18T16:10:19.046Z,26.88
2022-11-18T16:12:48.981Z,20.40
2022-11-18T16:15:35.373Z,26.10
2022-11-18T16:18:03.768Z,26.20
2022-11-18T16:20:30.808Z,17.70
2022-11-18T16:22:57.904Z,28.00
2022-11-18T16:25:25.926Z,26.02
2022-11-18T16:27:53.106Z,24.80
2022-11-18T16:30:38.828Z,28.30
2022-11-18T16:33:05.771Z,23.77
2022-11-18T16:35:32.964Z,22.92
2022-11-18T16:37:59.942Z,28.05
2022-11-18T16:40:28.610Z,31.02
2022-11-18T16:42:55.712Z,25.33
2022-11-18T16:45:22.652Z,21.50
2022-11-18T16:47:49.600Z,21.60
2022-11-18T16:50:16.778Z,19.67
2022-11-18T16:52:43.626Z,24.38
2022-11-18T16:55:10.548Z,16.92
2022-11-18T16:57:37.542Z,19.85
2022-11-18T17:00:05.435Z,19.42
2022-11-18T17:02:32.549Z,20.15
2022-11-18T17:04:59.518Z,19.35
2022-11-18T17:07:26.595Z,16.58
2022-11-18T17:09:53.540Z,20.42
2022-11-18T17:12:20.490Z,16.40
2022-11-18T17:14:47.332Z,19.38
2022-11-18T17:17:14.330Z,23.20
2022-11-18T17:19:41.440Z,17.23
2022-11-18T17:22:08.305Z,16.13
2022-11-18T17:24:35.236Z,21.60
2022-11-18T17:27:02.257Z,20.13
2022-11-18T17:29:29.152Z,21.20
2022-11-18T17:31:56.373Z,19.48
2022-11-18T17:34:23.322Z,15.23
2022-11-18T17:36:50.555Z,16.98
2022-11-18T17:39:18.913Z,20.80
2022-11-18T17:42:04.729Z,24.17
2022-11-18T17:44:31.661Z,14.38
2022-11-18T17:46:58.627Z,17.25
2022-11-18T17:49:25.660Z,16.35
2022-11-18T17:51:52.598Z,19.00
2022-11-18T17:54:20.866Z,20.98
2022-11-18T17:56:48.643Z,17.50
2022-11-18T17:59:17.499Z,17.33
2022-11-18T18:01:47.948Z,19.42
2022-11-18T18:04:20.377Z,20.27
2022-11-18T18:06:52.933Z,23.45
2022-11-18T18:09:26.886Z,21.92
2022-11-18T18:11:58.217Z,19.52
2022-11-18T18:14:25.136Z,22.35
2022-11-18T18:16:52.080Z,15.25
2022-11-18T18:19:21.256Z,15.15
2022-11-18T18:21:48.390Z,20.73
2022-11-18T18:24:17.562Z,21.13
2022-11-18T18:26:44.942Z,22.88
2022-11-18T18:29:12.614Z,23.52
2022-11-18T18:31:39.828Z,14.80
2022-11-18T18:34:06.798Z,18.85
2022-11-18T18:36:34.401Z,23.77
2022-11-18T18:39:02.492Z,19.60
2022-11-18T18:41:30.489Z,15.77
2022-11-18T18:43:57.560Z,20.35
2022-11-18T18:46:29.900Z,26.08
2022-11-18T18:49:10.949Z,17.42
2022-11-18T18:51:43.221Z,17.88
2022-11-18T18:54:11.919Z,23.67
2022-11-18T18:56:38.945Z,17.27
2022-11-18T18:59:07.278Z,15.30
2022-11-18T19:01:35.003Z,20.10
2022-11-18T19:04:04.864Z,23.67
2022-11-18T19:09:26.680Z,19.00
2022-11-18T19:12:12.696Z,17.50
2022-11-18T19:14:39.839Z,21.83
2022-11-18T19:17:11.392Z,19.23
2022-11-18T19:19:59.523Z,17.17
2022-11-18T19:22:30.888Z,20.40
2022-11-18T19:24:58.563Z,24.40
2022-11-18T19:27:26.280Z,18.33
2022-11-18T19:29:53.197Z,15.38
2022-11-18T19:32:20.233Z,18.40
2022-11-18T19:34:47.134Z,20.25
2022-11-18T19:37:14.047Z,12.32
2022-11-18T19:39:40.941Z,20.50
2022-11-18T19:42:08.051Z,10.93
2022-11-18T19:44:34.918Z,16.05
2022-11-18T19:47:01.852Z,12.07
2022-11-18T19:49:28.804Z,24.00
2022-11-18T19:51:55.736Z,18.35
2022-11-18T19:54:23.660Z,15.88
2022-11-18T19:56:50.708Z,16.05
2022-11-18T19:59:17.932Z,15.88
2022-11-18T20:01:45.236Z,25.05
2022-11-18T20:04:12.287Z,17.35
2022-11-18T20:06:40.257Z,11.75
2022-11-18T20:09:09.047Z,20.10
2022-11-18T20:11:36.599Z,21.40
2022-11-18T20:14:03.552Z,16.63
2022-11-18T20:16:30.795Z,15.52
2022-11-18T20:19:02.912Z,18.73
2022-11-18T20:21:34.451Z,19.90
2022-11-18T20:24:03.483Z,13.00
2022-11-18T20:26:40.285Z,16.55
2022-11-18T20:29:08.264Z,17.20
2022-11-18T20:31:37.385Z,19.60
2022-11-18T20:34:05.268Z,19.10
2022-11-18T20:36:35.683Z,11.45
2022-11-18T20:39:14.647Z,12.93
2022-11-18T20:41:42.227Z,17.65
2022-11-18T20:44:09.187Z,21.65
2022-11-18T20:46:36.064Z,13.90
2022-11-18T20:49:03.399Z,12.45
2022-11-18T20:51:30.339Z,14.07
2022-11-18T20:53:58.606Z,18.00
2022-11-18T20:56:27.495Z,17.58
2022-11-18T20:58:57.017Z,17.33
2022-11-18T21:01:27.201Z,22.02
2022-11-18T21:03:59.385Z,12.73
2022-11-18T21:06:29.386Z,15.93
2022-11-18T21:09:00.233Z,16.40
2022-11-18T21:11:27.945Z,12.00
2022-11-18T21:14:16.021Z,17.55
2022-11-18T21:16:46.482Z,12.02
2022-11-18T21:19:13.920Z,15.63
2022-11-18T21:21:48.866Z,10.52
2022-11-18T21:24:19.779Z,11.90
2022-11-18T21:26:48.876Z,11.70
2022-11-18T21:29:17.680Z,16.80
2022-11-18T21:31:47.066Z,20.25
2022-11-18T21:34:15.534Z,17.23
2022-11-18T21:36:45.982Z,14.88
2022-11-18T21:39:15.560Z,14.93
2022-11-18T21:41:43.473Z,14.18
2022-11-18T21:44:12.745Z,15.45
2022-11-18T21:46:41.457Z,17.00
2022-11-18T21:49:08.625Z,20.17
2022-11-18T21:51:35.973Z,14.95
2022-11-18T21:54:03.141Z,13.40
2022-11-18T21:56:31.482Z,15.45
2022-11-18T21:59:01.312Z,10.55
2022-11-18T22:01:33.542Z,19.23
2022-11-18T22:04:03.128Z,16.25
2022-11-18T22:06:33.902Z,21.83
2022-11-18T22:09:02.574Z,14.40
2022-11-18T22:11:29.440Z,27.30
2022-11-18T22:13:56.322Z,21.95
2022-11-18T22:16:24.803Z,19.10
2022-11-18T22:18:59.188Z,27.85
2022-11-18T22:21:29.400Z,27.95
2022-11-18T22:24:00.917Z,29.00
2022-11-18T22:26:28.794Z,13.20
2022-11-18T22:28:57.383Z,21.20
2022-11-18T22:31:26.650Z,18.90
2022-11-18T22:33:55.594Z,19.88
2022-11-18T22:36:25.586Z,11.93
2022-11-18T22:38:53.944Z,29.35
2022-11-18T22:41:42.423Z,19.65
2022-11-18T22:44:10.549Z,28.77
2022-11-18T22:46:38.895Z,15.80
2022-11-18T22:49:07.538Z,15.95
2022-11-18T22:51:35.983Z,16.67
2022-11-18T22:54:31.235Z,14.45
2022-11-18T22:56:50.853Z,14.90
2022-11-18T22:59:18.050Z,20.73
2022-11-18T23:01:45.188Z,21.52
2022-11-18T23:04:12.033Z,21.17
2022-11-18T23:06:39.098Z,25.67
2022-11-18T23:09:06.111Z,20.95
2022-11-18T23:11:51.445Z,21.15
2022-11-18T23:14:18.334Z,17.40
2022-11-18T23:16:45.291Z,23.38
2022-11-18T23:19:14.644Z,19.80
2022-11-18T23:21:42.916Z,19.27
2022-11-18T23:24:14.599Z,22.35
2022-11-18T23:26:42.205Z,19.55
2022-11-18T23:29:10.426Z,23.38
2022-11-18T23:31:40.874Z,26.33
2022-11-18T23:34:07.774Z,23.08
2022-11-18T23:36:34.622Z,17.33
2022-11-18T23:39:01.471Z,17.00
2022-11-18T23:41:28.363Z,21.30
2022-11-18T23:43:55.224Z,17.60
2022-11-18T23:46:22.065Z,16.58
2022-11-18T23:48:49.219Z,19.38
2022-11-18T23:51:20.945Z,15.80
2022-11-18T23:53:52.655Z,13.38
2022-11-18T23:56:21.044Z,15.02
2022-11-18T23:58:50.234Z,10.13
